sensor_id;sensor_type;location;lat;lon;timestamp;temperature;humidity
7684;DHT22;3884;48.616;12.872;2024-02-26T00:00:58;2.40;1.00
7684;DHT22;3884;48.616;12.872;2024-02-26T00:03:35;2.40;1.00
7684;DHT22;3884;48.616;12.872;2024-02-26T00:06:08;2.40;1.00
7684;DHT22;3884;48.616;12.872;2024-02-26T00:08:39;2.40;1.00
7684;DHT22;3884;48.616;12.872;2024-02-26T00:14:29;2.50;1.00
7684;DHT22;3884;48.616;12.872;2024-02-26T00:17:09;2.50;1.00
7684;DHT22;3884;48.616;12.872;2024-02-26T00:19:37;2.50;1.00
7684;DHT22;3884;48.616;12.872;2024-02-26T00:22:04;2.50;1.00
7684;DHT22;3884;48.616;12.872;2024-02-26T00:24:32;2.40;1.00
7684;DHT22;3884;48.616;12.872;2024-02-26T00:27:00;2.50;1.00
7684;DHT22;3884;48.616;12.872;2024-02-26T00:29:43;2.50;1.00
7684;DHT22;3884;48.616;12.872;2024-02-26T00:32:12;2.60;1.00
7684;DHT22;3884;48.616;12.872;2024-02-26T00:34:41;2.70;1.00
7684;DHT22;3884;48.616;12.872;2024-02-26T00:37:08;2.70;1.00
7684;DHT22;3884;48.616;12.872;2024-02-26T00:39:35;2.60;1.00
7684;DHT22;3884;48.616;12.872;2024-02-26T00:42:02;2.60;1.00
7684;DHT22;3884;48.616;12.872;2024-02-26T00:44:29;2.50;1.00
7684;DHT22;3884;48.616;12.872;2024-02-26T00:46:57;2.40;1.00
7684;DHT22;3884;48.616;12.872;2024-02-26T00:49:24;2.50;1.00
7684;DHT22;3884;48.616;12.872;2024-02-26T00:51:52;2.50;1.00
7684;DHT22;3884;48.616;12.872;2024-02-26T00:54:19;2.50;1.00
7684;DHT22;3884;48.616;12.872;2024-02-26T00:56:46;2.50;1.00
7684;DHT22;3884;48.616;12.872;2024-02-26T00:59:13;2.50;1.00
7684;DHT22;3884;48.616;12.872;2024-02-26T01:01:40;2.50;1.00
7684;DHT22;3884;48.616;12.872;2024-02-26T01:04:08;2.50;1.00
7684;DHT22;3884;48.616;12.872;2024-02-26T01:06:35;2.50;1.00
7684;DHT22;3884;48.616;12.872;2024-02-26T01:09:03;2.40;1.00
7684;DHT22;3884;48.616;12.872;2024-02-26T01:11:30;2.40;1.00
7684;DHT22;3884;48.616;12.872;2024-02-26T01:13:57;2.40;1.00
7684;DHT22;3884;48.616;12.872;2024-02-26T01:16:25;2.40;1.00
7684;DHT22;3884;48.616;12.872;2024-02-26T01:18:55;2.40;1.00
7684;DHT22;3884;48.616;12.872;2024-02-26T01:21:23;2.40;1.00
7684;DHT22;3884;48.616;12.872;2024-02-26T01:23:54;2.30;1.00
7684;DHT22;3884;48.616;12.872;2024-02-26T01:26:22;2.10;1.00
7684;DHT22;3884;48.616;12.872;2024-02-26T01:29:04;2.30;1.00
7684;DHT22;3884;48.616;12.872;2024-02-26T01:31:33;2.20;1.00
7684;DHT22;3884;48.616;12.872;2024-02-26T01:34:00;2.10;1.00
7684;DHT22;3884;48.616;12.872;2024-02-26T01:36:29;2.30;1.00
7684;DHT22;3884;48.616;12.872;2024-02-26T01:38:56;2.30;1.00
7684;DHT22;3884;48.616;12.872;2024-02-26T01:41:23;2.30;1.00
7684;DHT22;3884;48.616;12.872;2024-02-26T01:43:50;2.30;1.00
7684;DHT22;3884;48.616;12.872;2024-02-26T01:46:17;2.30;1.00
7684;DHT22;3884;48.616;12.872;2024-02-26T01:48:46;2.20;1.00
7684;DHT22;3884;48.616;12.872;2024-02-26T01:51:16;2.20;1.00
7684;DHT22;3884;48.616;12.872;2024-02-26T01:53:46;2.10;1.00
7684;DHT22;3884;48.616;12.872;2024-02-26T01:56:14;2.00;1.00
7684;DHT22;3884;48.616;12.872;2024-02-26T01:58:43;2.00;99.90
7684;DHT22;3884;48.616;12.872;2024-02-26T02:01:11;1.90;99.90
7684;DHT22;3884;48.616;12.872;2024-02-26T02:03:38;1.80;99.90
7684;DHT22;3884;48.616;12.872;2024-02-26T02:06:07;1.70;99.90
7684;DHT22;3884;48.616;12.872;2024-02-26T02:08:34;1.80;99.90
7684;DHT22;3884;48.616;12.872;2024-02-26T02:11:04;1.70;99.90
7684;DHT22;3884;48.616;12.872;2024-02-26T02:13:31;1.60;99.90
7684;DHT22;3884;48.616;12.872;2024-02-26T02:15:58;1.70;99.90
7684;DHT22;3884;48.616;12.872;2024-02-26T02:18:25;1.60;99.90
7684;DHT22;3884;48.616;12.872;2024-02-26T02:20:55;1.50;99.90
7684;DHT22;3884;48.616;12.872;2024-02-26T02:23:25;1.30;99.90
7684;DHT22;3884;48.616;12.872;2024-02-26T02:25:52;1.20;99.90
7684;DHT22;3884;48.616;12.872;2024-02-26T02:28:20;1.10;99.90
7684;DHT22;3884;48.616;12.872;2024-02-26T02:30:48;1.10;99.90
7684;DHT22;3884;48.616;12.872;2024-02-26T02:33:15;1.10;99.90
7684;DHT22;3884;48.616;12.872;2024-02-26T02:35:42;1.10;99.90
7684;DHT22;3884;48.616;12.872;2024-02-26T02:38:11;1.10;99.90
7684;DHT22;3884;48.616;12.872;2024-02-26T02:40:38;1.20;99.90
7684;DHT22;3884;48.616;12.872;2024-02-26T02:43:05;1.20;99.90
7684;DHT22;3884;48.616;12.872;2024-02-26T02:45:32;1.20;99.90
7684;DHT22;3884;48.616;12.872;2024-02-26T02:47:59;1.10;1.00
7684;DHT22;3884;48.616;12.872;2024-02-26T02:50:26;1.10;1.00
7684;DHT22;3884;48.616;12.872;2024-02-26T02:52:54;1.10;1.00
7684;DHT22;3884;48.616;12.872;2024-02-26T02:55:23;1.10;99.90
7684;DHT22;3884;48.616;12.872;2024-02-26T02:57:49;1.10;99.90
7684;DHT22;3884;48.616;12.872;2024-02-26T03:00:17;1.10;99.90
7684;DHT22;3884;48.616;12.872;2024-02-26T03:02:44;1.10;99.90
7684;DHT22;3884;48.616;12.872;2024-02-26T03:05:12;0.80;99.90
7684;DHT22;3884;48.616;12.872;2024-02-26T03:07:39;0.70;1.00
7684;DHT22;3884;48.616;12.872;2024-02-26T03:10:08;0.70;1.00
7684;DHT22;3884;48.616;12.872;2024-02-26T03:12:37;0.70;20.80
7684;DHT22;3884;48.616;12.872;2024-02-26T03:15:05;0.60;99.90
7684;DHT22;3884;48.616;12.872;2024-02-26T03:17:35;0.70;99.90
7684;DHT22;3884;48.616;12.872;2024-02-26T03:20:07;0.70;99.90
7684;DHT22;3884;48.616;12.872;2024-02-26T03:22:35;0.70;99.90
7684;DHT22;3884;48.616;12.872;2024-02-26T03:25:07;0.70;99.90
7684;DHT22;3884;48.616;12.872;2024-02-26T03:27:35;0.70;99.90
7684;DHT22;3884;48.616;12.872;2024-02-26T03:30:07;0.70;1.00
7684;DHT22;3884;48.616;12.872;2024-02-26T03:32:42;0.60;1.00
7684;DHT22;3884;48.616;12.872;2024-02-26T03:35:12;0.70;1.00
7684;DHT22;3884;48.616;12.872;2024-02-26T03:37:41;0.80;8.80
7684;DHT22;3884;48.616;12.872;2024-02-26T03:40:09;0.90;99.90
7684;DHT22;3884;48.616;12.872;2024-02-26T03:42:38;0.90;99.90
7684;DHT22;3884;48.616;12.872;2024-02-26T03:45:08;1.00;99.90
7684;DHT22;3884;48.616;12.872;2024-02-26T03:47:38;1.00;99.90
7684;DHT22;3884;48.616;12.872;2024-02-26T03:50:06;1.00;99.90
7684;DHT22;3884;48.616;12.872;2024-02-26T03:52:34;0.90;1.00
7684;DHT22;3884;48.616;12.872;2024-02-26T03:55:01;0.90;1.00
7684;DHT22;3884;48.616;12.872;2024-02-26T03:57:28;0.80;1.00
7684;DHT22;3884;48.616;12.872;2024-02-26T03:59:56;0.70;1.00
7684;DHT22;3884;48.616;12.872;2024-02-26T04:02:26;0.60;1.00
7684;DHT22;3884;48.616;12.872;2024-02-26T04:04:53;0.70;1.00
7684;DHT22;3884;48.616;12.872;2024-02-26T04:07:20;0.70;81.50
7684;DHT22;3884;48.616;12.872;2024-02-26T04:09:48;0.80;99.90
7684;DHT22;3884;48.616;12.872;2024-02-26T04:12:15;1.00;99.90
7684;DHT22;3884;48.616;12.872;2024-02-26T04:14:42;1.00;99.90
7684;DHT22;3884;48.616;12.872;2024-02-26T04:17:10;0.80;99.90
7684;DHT22;3884;48.616;12.872;2024-02-26T04:19:39;0.60;1.00
7684;DHT22;3884;48.616;12.872;2024-02-26T04:22:06;0.40;1.00
7684;DHT22;3884;48.616;12.872;2024-02-26T04:24:33;0.40;76.90
7684;DHT22;3884;48.616;12.872;2024-02-26T04:27:08;0.30;99.90
7684;DHT22;3884;48.616;12.872;2024-02-26T04:30:02;0.70;99.90
7684;DHT22;3884;48.616;12.872;2024-02-26T04:32:48;0.30;99.90
7684;DHT22;3884;48.616;12.872;2024-02-26T04:35:34;0.40;99.90
7684;DHT22;3884;48.616;12.872;2024-02-26T04:38:43;0.40;1.00
7684;DHT22;3884;48.616;12.872;2024-02-26T04:41:32;0.90;1.00
7684;DHT22;3884;48.616;12.872;2024-02-26T04:44:26;0.30;99.90
7684;DHT22;3884;48.616;12.872;2024-02-26T04:47:20;0.40;99.90
7684;DHT22;3884;48.616;12.872;2024-02-26T04:49:54;0.30;99.90
7684;DHT22;3884;48.616;12.872;2024-02-26T04:52:32;0.30;91.70
7684;DHT22;3884;48.616;12.872;2024-02-26T04:55:29;0.10;1.00
7684;DHT22;3884;48.616;12.872;2024-02-26T04:58:02;0.30;1.00
7684;DHT22;3884;48.616;12.872;2024-02-26T05:00:30;0.10;1.00
7684;DHT22;3884;48.616;12.872;2024-02-26T05:03:05;0.20;64.10
7684;DHT22;3884;48.616;12.872;2024-02-26T05:05:54;0.20;99.90
7684;DHT22;3884;48.616;12.872;2024-02-26T05:08:49;0.20;99.90
7684;DHT22;3884;48.616;12.872;2024-02-26T05:11:29;0.30;99.90
7684;DHT22;3884;48.616;12.872;2024-02-26T05:14:08;0.60;85.90
7684;DHT22;3884;48.616;12.872;2024-02-26T05:17:12;0.30;1.00
7684;DHT22;3884;48.616;12.872;2024-02-26T05:20:01;0.30;1.00
7684;DHT22;3884;48.616;12.872;2024-02-26T05:22:46;0.00;1.00
7684;DHT22;3884;48.616;12.872;2024-02-26T05:28:35;0.20;15.30
7684;DHT22;3884;48.616;12.872;2024-02-26T05:31:19;0.30;99.90
7684;DHT22;3884;48.616;12.872;2024-02-26T05:34:05;0.20;99.90
7684;DHT22;3884;48.616;12.872;2024-02-26T05:36:48;0.20;99.90
7684;DHT22;3884;48.616;12.872;2024-02-26T05:39:44;0.30;99.90
7684;DHT22;3884;48.616;12.872;2024-02-26T05:42:19;0.30;99.90
7684;DHT22;3884;48.616;12.872;2024-02-26T05:48:23;1.40;1.00
7684;DHT22;3884;48.616;12.872;2024-02-26T05:50:58;0.10;1.00
7684;DHT22;3884;48.616;12.872;2024-02-26T05:53:27;0.80;1.00
7684;DHT22;3884;48.616;12.872;2024-02-26T05:56:01;-0.20;1.00
7684;DHT22;3884;48.616;12.872;2024-02-26T05:58:38;0.20;1.00
7684;DHT22;3884;48.616;12.872;2024-02-26T06:01:06;0.20;37.90
7684;DHT22;3884;48.616;12.872;2024-02-26T06:03:48;0.80;1.00
7684;DHT22;3884;48.616;12.872;2024-02-26T06:06:32;0.20;1.00
7684;DHT22;3884;48.616;12.872;2024-02-26T06:09:06;0.10;1.00
7684;DHT22;3884;48.616;12.872;2024-02-26T06:11:43;0.00;1.00
7684;DHT22;3884;48.616;12.872;2024-02-26T06:14:26;-0.20;1.00
7684;DHT22;3884;48.616;12.872;2024-02-26T06:17:00;-0.20;1.00
7684;DHT22;3884;48.616;12.872;2024-02-26T06:19:44;-0.10;1.00
7684;DHT22;3884;48.616;12.872;2024-02-26T06:22:13;0.00;1.00
7684;DHT22;3884;48.616;12.872;2024-02-26T06:24:57;0.10;1.00
7684;DHT22;3884;48.616;12.872;2024-02-26T06:27:31;0.10;1.00
7684;DHT22;3884;48.616;12.872;2024-02-26T06:30:01;0.10;1.00
7684;DHT22;3884;48.616;12.872;2024-02-26T06:32:44;0.10;1.00
7684;DHT22;3884;48.616;12.872;2024-02-26T06:35:16;0.10;1.00
7684;DHT22;3884;48.616;12.872;2024-02-26T06:37:53;0.20;2.10
7684;DHT22;3884;48.616;12.872;2024-02-26T06:40:29;0.20;1.00
7684;DHT22;3884;48.616;12.872;2024-02-26T06:43:17;0.30;1.00
7684;DHT22;3884;48.616;12.872;2024-02-26T06:45:50;0.30;1.00
7684;DHT22;3884;48.616;12.872;2024-02-26T06:48:23;0.30;1.00
7684;DHT22;3884;48.616;12.872;2024-02-26T06:50:53;0.30;1.00
7684;DHT22;3884;48.616;12.872;2024-02-26T06:53:20;0.30;1.00
7684;DHT22;3884;48.616;12.872;2024-02-26T06:55:47;0.30;1.00
7684;DHT22;3884;48.616;12.872;2024-02-26T06:58:16;0.30;1.00
7684;DHT22;3884;48.616;12.872;2024-02-26T07:00:43;0.40;1.00
7684;DHT22;3884;48.616;12.872;2024-02-26T07:03:11;0.60;1.00
7684;DHT22;3884;48.616;12.872;2024-02-26T07:05:39;0.70;99.90
7684;DHT22;3884;48.616;12.872;2024-02-26T07:08:07;0.60;99.90
7684;DHT22;3884;48.616;12.872;2024-02-26T07:10:34;0.60;99.90
7684;DHT22;3884;48.616;12.872;2024-02-26T07:13:01;0.60;1.00
7684;DHT22;3884;48.616;12.872;2024-02-26T07:15:29;0.70;1.00
7684;DHT22;3884;48.616;12.872;2024-02-26T07:17:56;0.90;99.90
7684;DHT22;3884;48.616;12.872;2024-02-26T07:20:28;0.80;99.90
7684;DHT22;3884;48.616;12.872;2024-02-26T07:22:56;0.80;99.90
7684;DHT22;3884;48.616;12.872;2024-02-26T07:25:24;0.90;99.90
7684;DHT22;3884;48.616;12.872;2024-02-26T07:27:51;0.80;99.90
7684;DHT22;3884;48.616;12.872;2024-02-26T07:30:18;0.80;99.90
7684;DHT22;3884;48.616;12.872;2024-02-26T07:32:44;0.90;99.90
7684;DHT22;3884;48.616;12.872;2024-02-26T07:35:12;1.10;99.90
7684;DHT22;3884;48.616;12.872;2024-02-26T07:37:39;1.20;99.90
7684;DHT22;3884;48.616;12.872;2024-02-26T07:40:11;1.30;99.90
7684;DHT22;3884;48.616;12.872;2024-02-26T07:42:45;1.40;99.90
7684;DHT22;3884;48.616;12.872;2024-02-26T07:45:12;1.40;1.00
7684;DHT22;3884;48.616;12.872;2024-02-26T07:47:41;1.50;1.00
7684;DHT22;3884;48.616;12.872;2024-02-26T07:50:09;1.50;1.00
7684;DHT22;3884;48.616;12.872;2024-02-26T07:52:37;1.50;1.00
7684;DHT22;3884;48.616;12.872;2024-02-26T07:55:07;1.30;99.90
7684;DHT22;3884;48.616;12.872;2024-02-26T07:57:36;1.40;99.90
7684;DHT22;3884;48.616;12.872;2024-02-26T08:00:11;1.30;99.90
7684;DHT22;3884;48.616;12.872;2024-02-26T08:02:42;1.40;99.90
7684;DHT22;3884;48.616;12.872;2024-02-26T08:05:10;1.50;99.90
7684;DHT22;3884;48.616;12.872;2024-02-26T08:07:52;1.70;99.90
7684;DHT22;3884;48.616;12.872;2024-02-26T08:10:26;1.70;99.90
7684;DHT22;3884;48.616;12.872;2024-02-26T08:12:54;1.60;99.90
7684;DHT22;3884;48.616;12.872;2024-02-26T08:15:28;1.70;99.90
7684;DHT22;3884;48.616;12.872;2024-02-26T08:17:59;1.90;99.90
7684;DHT22;3884;48.616;12.872;2024-02-26T08:20:30;2.00;1.00
7684;DHT22;3884;48.616;12.872;2024-02-26T08:23:00;2.10;99.90
7684;DHT22;3884;48.616;12.872;2024-02-26T08:25:30;2.30;99.90
7684;DHT22;3884;48.616;12.872;2024-02-26T08:35:50;3.20;1.00
7684;DHT22;3884;48.616;12.872;2024-02-26T08:38:20;3.60;68.40
7684;DHT22;3884;48.616;12.872;2024-02-26T08:40:49;3.80;1.00
7684;DHT22;3884;48.616;12.872;2024-02-26T08:43:16;3.90;99.90
7684;DHT22;3884;48.616;12.872;2024-02-26T08:45:43;4.20;1.00
7684;DHT22;3884;48.616;12.872;2024-02-26T08:48:10;4.40;1.00
7684;DHT22;3884;48.616;12.872;2024-02-26T08:50:37;4.50;1.00
7684;DHT22;3884;48.616;12.872;2024-02-26T08:53:06;4.60;1.00
7684;DHT22;3884;48.616;12.872;2024-02-26T08:55:33;4.80;99.90
7684;DHT22;3884;48.616;12.872;2024-02-26T08:58:00;4.90;99.90
7684;DHT22;3884;48.616;12.872;2024-02-26T09:00:27;5.00;99.90
7684;DHT22;3884;48.616;12.872;2024-02-26T09:02:57;5.20;1.00
7684;DHT22;3884;48.616;12.872;2024-02-26T09:05:25;5.20;7.40
7684;DHT22;3884;48.616;12.872;2024-02-26T09:07:52;5.20;1.00
7684;DHT22;3884;48.616;12.872;2024-02-26T09:10:21;5.40;99.90
7684;DHT22;3884;48.616;12.872;2024-02-26T09:12:49;5.50;1.00
7684;DHT22;3884;48.616;12.872;2024-02-26T09:15:16;5.70;1.00
7684;DHT22;3884;48.616;12.872;2024-02-26T09:17:46;5.80;99.00
7684;DHT22;3884;48.616;12.872;2024-02-26T09:20:15;6.00;1.00
7684;DHT22;3884;48.616;12.872;2024-02-26T09:22:45;6.20;99.90
7684;DHT22;3884;48.616;12.872;2024-02-26T09:25:13;6.40;99.90
7684;DHT22;3884;48.616;12.872;2024-02-26T09:27:43;6.60;99.90
7684;DHT22;3884;48.616;12.872;2024-02-26T09:30:12;6.80;99.90
7684;DHT22;3884;48.616;12.872;2024-02-26T09:32:40;7.00;1.00
7684;DHT22;3884;48.616;12.872;2024-02-26T09:35:07;7.10;1.00
7684;DHT22;3884;48.616;12.872;2024-02-26T09:37:34;7.10;1.00
7684;DHT22;3884;48.616;12.872;2024-02-26T09:40:03;7.20;99.90
7684;DHT22;3884;48.616;12.872;2024-02-26T09:42:32;7.30;99.90
7684;DHT22;3884;48.616;12.872;2024-02-26T09:45:05;7.40;99.90
7684;DHT22;3884;48.616;12.872;2024-02-26T09:47:39;7.50;13.70
7684;DHT22;3884;48.616;12.872;2024-02-26T09:50:08;7.70;1.00
7684;DHT22;3884;48.616;12.872;2024-02-26T09:52:41;7.50;1.00
7684;DHT22;3884;48.616;12.872;2024-02-26T09:55:08;7.50;1.00
7684;DHT22;3884;48.616;12.872;2024-02-26T09:57:37;7.40;1.00
7684;DHT22;3884;48.616;12.872;2024-02-26T10:00:10;7.20;81.20
7684;DHT22;3884;48.616;12.872;2024-02-26T10:02:38;7.40;41.80
7684;DHT22;3884;48.616;12.872;2024-02-26T10:05:10;7.30;99.90
7684;DHT22;3884;48.616;12.872;2024-02-26T10:07:39;7.40;1.00
7684;DHT22;3884;48.616;12.872;2024-02-26T10:10:08;7.40;5.30
7684;DHT22;3884;48.616;12.872;2024-02-26T10:12:36;7.50;1.00
7684;DHT22;3884;48.616;12.872;2024-02-26T10:15:08;7.50;1.00
7684;DHT22;3884;48.616;12.872;2024-02-26T10:17:36;7.60;11.70
7684;DHT22;3884;48.616;12.872;2024-02-26T10:20:14;7.50;1.00
7684;DHT22;3884;48.616;12.872;2024-02-26T10:22:44;7.60;1.00
7684;DHT22;3884;48.616;12.872;2024-02-26T10:25:11;7.60;1.00
7684;DHT22;3884;48.616;12.872;2024-02-26T10:27:40;7.60;1.00
7684;DHT22;3884;48.616;12.872;2024-02-26T10:30:17;7.60;1.00
7684;DHT22;3884;48.616;12.872;2024-02-26T10:32:45;7.60;1.00
7684;DHT22;3884;48.616;12.872;2024-02-26T10:35:23;7.70;1.00
7684;DHT22;3884;48.616;12.872;2024-02-26T10:37:52;7.80;1.00
7684;DHT22;3884;48.616;12.872;2024-02-26T10:40:20;8.10;1.00
7684;DHT22;3884;48.616;12.872;2024-02-26T10:42:49;7.90;1.00
7684;DHT22;3884;48.616;12.872;2024-02-26T10:45:20;8.00;1.00
7684;DHT22;3884;48.616;12.872;2024-02-26T10:47:47;8.00;1.00
7684;DHT22;3884;48.616;12.872;2024-02-26T10:50:14;8.10;1.00
7684;DHT22;3884;48.616;12.872;2024-02-26T10:52:47;8.10;1.00
7684;DHT22;3884;48.616;12.872;2024-02-26T10:56:00;8.30;1.00
7684;DHT22;3884;48.616;12.872;2024-02-26T11:07:04;8.50;1.00
7684;DHT22;3884;48.616;12.872;2024-02-26T11:09:48;8.50;1.00
7684;DHT22;3884;48.616;12.872;2024-02-26T11:12:31;8.50;1.00
7684;DHT22;3884;48.616;12.872;2024-02-26T11:15:16;8.50;99.90
7684;DHT22;3884;48.616;12.872;2024-02-26T11:18:01;8.30;99.90
7684;DHT22;3884;48.616;12.872;2024-02-26T11:20:42;8.80;99.90
7684;DHT22;3884;48.616;12.872;2024-02-26T11:23:26;8.50;99.90
7684;DHT22;3884;48.616;12.872;2024-02-26T11:26:16;8.50;99.90
7684;DHT22;3884;48.616;12.872;2024-02-26T12:19:55;8.30;99.90
7684;DHT22;3884;48.616;12.872;2024-02-26T12:22:30;8.30;99.90
7684;DHT22;3884;48.616;12.872;2024-02-26T12:25:01;8.50;99.90
7684;DHT22;3884;48.616;12.872;2024-02-26T12:27:42;8.40;99.90
7684;DHT22;3884;48.616;12.872;2024-02-26T12:30:35;8.40;99.90
7684;DHT22;3884;48.616;12.872;2024-02-26T12:34:55;8.40;99.90
7684;DHT22;3884;48.616;12.872;2024-02-26T12:57:01;8.80;99.90
7684;DHT22;3884;48.616;12.872;2024-02-26T12:59:36;8.90;99.90
7684;DHT22;3884;48.616;12.872;2024-02-26T13:02:04;8.90;99.90
7684;DHT22;3884;48.616;12.872;2024-02-26T13:04:32;9.00;99.90
7684;DHT22;3884;48.616;12.872;2024-02-26T13:07:03;9.10;99.90
7684;DHT22;3884;48.616;12.872;2024-02-26T13:09:34;9.20;99.90
7684;DHT22;3884;48.616;12.872;2024-02-26T13:12:06;9.30;99.90
7684;DHT22;3884;48.616;12.872;2024-02-26T13:14:35;9.40;99.90
7684;DHT22;3884;48.616;12.872;2024-02-26T13:17:03;9.50;99.90
7684;DHT22;3884;48.616;12.872;2024-02-26T13:19:33;9.60;99.90
7684;DHT22;3884;48.616;12.872;2024-02-26T13:22:04;9.80;99.90
7684;DHT22;3884;48.616;12.872;2024-02-26T13:24:32;9.60;99.90
7684;DHT22;3884;48.616;12.872;2024-02-26T13:27:00;9.70;99.90
7684;DHT22;3884;48.616;12.872;2024-02-26T13:29:37;9.70;99.90
7684;DHT22;3884;48.616;12.872;2024-02-26T13:32:07;9.90;99.90
7684;DHT22;3884;48.616;12.872;2024-02-26T13:34:44;10.00;99.90
7684;DHT22;3884;48.616;12.872;2024-02-26T13:37:15;10.10;99.90
7684;DHT22;3884;48.616;12.872;2024-02-26T13:39:44;10.20;99.90
7684;DHT22;3884;48.616;12.872;2024-02-26T13:42:11;10.30;99.90
7684;DHT22;3884;48.616;12.872;2024-02-26T13:44:47;10.30;99.90
7684;DHT22;3884;48.616;12.872;2024-02-26T13:47:18;10.50;99.90
7684;DHT22;3884;48.616;12.872;2024-02-26T13:49:51;10.50;99.90
7684;DHT22;3884;48.616;12.872;2024-02-26T13:52:22;10.50;99.90
7684;DHT22;3884;48.616;12.872;2024-02-26T13:54:52;10.50;99.90
7684;DHT22;3884;48.616;12.872;2024-02-26T13:57:19;10.60;99.90
7684;DHT22;3884;48.616;12.872;2024-02-26T13:59:52;10.70;99.90
7684;DHT22;3884;48.616;12.872;2024-02-26T14:02:22;10.70;99.90
7684;DHT22;3884;48.616;12.872;2024-02-26T14:04:54;10.80;99.90
7684;DHT22;3884;48.616;12.872;2024-02-26T14:07:26;10.80;99.90
7684;DHT22;3884;48.616;12.872;2024-02-26T14:10:07;10.90;99.90
7684;DHT22;3884;48.616;12.872;2024-02-26T14:12:37;10.80;99.90
7684;DHT22;3884;48.616;12.872;2024-02-26T14:15:10;10.90;99.90
7684;DHT22;3884;48.616;12.872;2024-02-26T14:17:39;10.90;99.20
7684;DHT22;3884;48.616;12.872;2024-02-26T14:20:08;10.90;99.90
7684;DHT22;3884;48.616;12.872;2024-02-26T14:22:38;10.80;99.60
7684;DHT22;3884;48.616;12.872;2024-02-26T14:25:07;10.80;97.80
7684;DHT22;3884;48.616;12.872;2024-02-26T14:27:35;10.60;95.60
7684;DHT22;3884;48.616;12.872;2024-02-26T14:30:03;10.60;96.90
7684;DHT22;3884;48.616;12.872;2024-02-26T14:32:35;10.50;95.10
7684;DHT22;3884;48.616;12.872;2024-02-26T14:35:06;10.60;99.90
7684;DHT22;3884;48.616;12.872;2024-02-26T14:37:36;10.80;98.70
7684;DHT22;3884;48.616;12.872;2024-02-26T14:40:04;10.70;94.30
7684;DHT22;3884;48.616;12.872;2024-02-26T14:42:31;10.60;95.20
7684;DHT22;3884;48.616;12.872;2024-02-26T14:44:58;10.70;92.80
7684;DHT22;3884;48.616;12.872;2024-02-26T14:47:25;10.70;91.70
7684;DHT22;3884;48.616;12.872;2024-02-26T14:49:53;10.70;90.90
7684;DHT22;3884;48.616;12.872;2024-02-26T14:52:20;10.50;90.90
7684;DHT22;3884;48.616;12.872;2024-02-26T14:54:48;10.40;93.20
7684;DHT22;3884;48.616;12.872;2024-02-26T14:57:17;10.40;95.60
7684;DHT22;3884;48.616;12.872;2024-02-26T14:59:45;10.50;99.90
7684;DHT22;3884;48.616;12.872;2024-02-26T15:02:15;10.50;99.90
7684;DHT22;3884;48.616;12.872;2024-02-26T15:04:44;10.50;99.90
7684;DHT22;3884;48.616;12.872;2024-02-26T15:07:17;10.50;99.90
7684;DHT22;3884;48.616;12.872;2024-02-26T15:09:53;10.50;99.90
7684;DHT22;3884;48.616;12.872;2024-02-26T15:12:23;10.50;99.90
7684;DHT22;3884;48.616;12.872;2024-02-26T15:14:50;10.50;99.90
7684;DHT22;3884;48.616;12.872;2024-02-26T15:17:17;10.40;99.90
7684;DHT22;3884;48.616;12.872;2024-02-26T15:19:45;10.50;99.90
7684;DHT22;3884;48.616;12.872;2024-02-26T15:22:15;10.50;99.90
7684;DHT22;3884;48.616;12.872;2024-02-26T15:24:44;10.50;99.90
7684;DHT22;3884;48.616;12.872;2024-02-26T15:27:12;10.60;99.90
7684;DHT22;3884;48.616;12.872;2024-02-26T15:29:41;10.60;99.90
7684;DHT22;3884;48.616;12.872;2024-02-26T15:32:08;10.70;99.90
7684;DHT22;3884;48.616;12.872;2024-02-26T15:34:35;10.70;99.90
7684;DHT22;3884;48.616;12.872;2024-02-26T15:37:04;10.60;99.90
7684;DHT22;3884;48.616;12.872;2024-02-26T15:39:38;10.50;99.90
7684;DHT22;3884;48.616;12.872;2024-02-26T15:42:05;10.30;99.90
7684;DHT22;3884;48.616;12.872;2024-02-26T15:44:43;10.30;99.90
7684;DHT22;3884;48.616;12.872;2024-02-26T15:47:11;10.30;99.90
7684;DHT22;3884;48.616;12.872;2024-02-26T15:49:40;10.30;99.90
7684;DHT22;3884;48.616;12.872;2024-02-26T15:52:08;10.10;99.90
7684;DHT22;3884;48.616;12.872;2024-02-26T15:54:43;10.10;99.90
7684;DHT22;3884;48.616;12.872;2024-02-26T15:57:11;9.90;99.90
7684;DHT22;3884;48.616;12.872;2024-02-26T15:59:40;9.80;99.90
7684;DHT22;3884;48.616;12.872;2024-02-26T16:02:09;9.80;99.90
7684;DHT22;3884;48.616;12.872;2024-02-26T16:04:38;9.70;99.90
7684;DHT22;3884;48.616;12.872;2024-02-26T16:07:17;9.50;99.90
7684;DHT22;3884;48.616;12.872;2024-02-26T16:09:56;9.40;99.90
7684;DHT22;3884;48.616;12.872;2024-02-26T16:12:29;9.40;99.90
7684;DHT22;3884;48.616;12.872;2024-02-26T16:15:14;9.40;99.90
7684;DHT22;3884;48.616;12.872;2024-02-26T16:17:47;9.30;99.90
7684;DHT22;3884;48.616;12.872;2024-02-26T16:20:18;9.20;99.90
7684;DHT22;3884;48.616;12.872;2024-02-26T16:22:45;9.10;99.90
7684;DHT22;3884;48.616;12.872;2024-02-26T16:25:17;9.20;99.90
7684;DHT22;3884;48.616;12.872;2024-02-26T16:27:44;9.00;99.90
7684;DHT22;3884;48.616;12.872;2024-02-26T16:30:13;8.90;99.90
7684;DHT22;3884;48.616;12.872;2024-02-26T16:32:40;8.60;99.90
7684;DHT22;3884;48.616;12.872;2024-02-26T16:35:09;8.40;99.90
7684;DHT22;3884;48.616;12.872;2024-02-26T16:37:37;8.40;99.90
7684;DHT22;3884;48.616;12.872;2024-02-26T16:40:06;8.50;99.90
7684;DHT22;3884;48.616;12.872;2024-02-26T16:42:36;8.50;99.90
7684;DHT22;3884;48.616;12.872;2024-02-26T16:45:04;8.60;99.90
7684;DHT22;3884;48.616;12.872;2024-02-26T16:47:31;8.50;99.90
7684;DHT22;3884;48.616;12.872;2024-02-26T16:49:58;8.50;1.00
7684;DHT22;3884;48.616;12.872;2024-02-26T16:52:30;8.60;1.00
7684;DHT22;3884;48.616;12.872;2024-02-26T16:55:00;8.40;1.00
7684;DHT22;3884;48.616;12.872;2024-02-26T16:57:30;8.40;1.00
7684;DHT22;3884;48.616;12.872;2024-02-26T16:59:59;8.30;1.00
7684;DHT22;3884;48.616;12.872;2024-02-26T17:02:26;8.30;1.00
7684;DHT22;3884;48.616;12.872;2024-02-26T17:04:55;8.20;1.00
7684;DHT22;3884;48.616;12.872;2024-02-26T17:07:23;8.10;1.00
7684;DHT22;3884;48.616;12.872;2024-02-26T17:09:50;8.00;1.00
7684;DHT22;3884;48.616;12.872;2024-02-26T17:12:17;7.90;1.00
7684;DHT22;3884;48.616;12.872;2024-02-26T17:14:47;7.70;1.00
7684;DHT22;3884;48.616;12.872;2024-02-26T17:17:20;7.70;1.00
7684;DHT22;3884;48.616;12.872;2024-02-26T17:19:48;7.60;1.00
7684;DHT22;3884;48.616;12.872;2024-02-26T17:22:14;7.60;1.00
7684;DHT22;3884;48.616;12.872;2024-02-26T17:24:43;7.60;1.00
7684;DHT22;3884;48.616;12.872;2024-02-26T17:27:12;7.60;1.00
7684;DHT22;3884;48.616;12.872;2024-02-26T17:29:48;7.70;1.00
7684;DHT22;3884;48.616;12.872;2024-02-26T17:32:20;7.60;1.00
7684;DHT22;3884;48.616;12.872;2024-02-26T17:34:48;7.50;1.00
7684;DHT22;3884;48.616;12.872;2024-02-26T17:37:30;7.40;1.00
7684;DHT22;3884;48.616;12.872;2024-02-26T17:40:03;7.30;1.00
7684;DHT22;3884;48.616;12.872;2024-02-26T17:42:47;7.20;1.00
7684;DHT22;3884;48.616;12.872;2024-02-26T17:45:19;7.30;1.00
7684;DHT22;3884;48.616;12.872;2024-02-26T17:48:05;7.20;1.00
7684;DHT22;3884;48.616;12.872;2024-02-26T17:50:34;7.00;14.70
7684;DHT22;3884;48.616;12.872;2024-02-26T17:53:07;7.00;21.40
7684;DHT22;3884;48.616;12.872;2024-02-26T17:55:39;7.20;6.70
7684;DHT22;3884;48.616;12.872;2024-02-26T17:58:08;7.10;1.00
7684;DHT22;3884;48.616;12.872;2024-02-26T18:00:39;7.20;1.00
7684;DHT22;3884;48.616;12.872;2024-02-26T18:03:19;7.20;1.00
7684;DHT22;3884;48.616;12.872;2024-02-26T18:05:46;7.20;1.00
7684;DHT22;3884;48.616;12.872;2024-02-26T18:08:13;7.10;1.00
7684;DHT22;3884;48.616;12.872;2024-02-26T18:10:40;7.00;1.00
7684;DHT22;3884;48.616;12.872;2024-02-26T18:13:08;6.80;99.90